sensor_id;sensor_type;location;lat;lon;timestamp;pressure;altitude;pressure_sealevel;temperature;humidity
5755;BME280;2902;42.130;24.732;2024-02-21T00:02:23;100247.50;;;8.05;96.72
5755;BME280;2902;42.130;24.732;2024-02-21T00:04:49;100245.06;;;8.04;96.75
5755;BME280;2902;42.130;24.732;2024-02-21T00:07:16;100236.94;;;8.05;98.35
5755;BME280;2902;42.130;24.732;2024-02-21T00:09:43;100250.97;;;7.98;98.64
5755;BME280;2902;42.130;24.732;2024-02-21T00:12:10;100230.59;;;7.82;99.09
5755;BME280;2902;42.130;24.732;2024-02-21T00:14:39;100247.28;;;7.83;100.00
5755;BME280;2902;42.130;24.732;2024-02-21T00:17:05;100239.19;;;7.84;100.00
5755;BME280;2902;42.130;24.732;2024-02-21T00:19:35;100239.38;;;7.91;100.00
5755;BME280;2902;42.130;24.732;2024-02-21T00:22:01;100239.56;;;7.97;100.00
5755;BME280;2902;42.130;24.732;2024-02-21T00:24:28;100241.56;;;7.95;99.85
5755;BME280;2902;42.130;24.732;2024-02-21T00:26:55;100241.53;;;7.87;99.39
5755;BME280;2902;42.130;24.732;2024-02-21T00:29:21;100232.44;;;7.90;99.01
5755;BME280;2902;42.130;24.732;2024-02-21T00:31:49;100237.09;;;7.96;99.19
5755;BME280;2902;42.130;24.732;2024-02-21T00:34:16;100229.63;;;7.91;99.64
5755;BME280;2902;42.130;24.732;2024-02-21T00:36:44;100227.84;;;8.00;99.20
5755;BME280;2902;42.130;24.732;2024-02-21T00:39:10;100226.19;;;8.07;100.00
5755;BME280;2902;42.130;24.732;2024-02-21T00:41:37;100224.56;;;8.14;99.66
5755;BME280;2902;42.130;24.732;2024-02-21T00:44:04;100221.59;;;8.17;99.69
5755;BME280;2902;42.130;24.732;2024-02-21T00:46:31;100220.59;;;8.18;99.54
5755;BME280;2902;42.130;24.732;2024-02-21T00:48:58;100218.13;;;8.16;98.12
5755;BME280;2902;42.130;24.732;2024-02-21T00:51:25;100222.25;;;8.19;98.73
5755;BME280;2902;42.130;24.732;2024-02-21T00:53:53;100212.50;;;8.19;99.73
5755;BME280;2902;42.130;24.732;2024-02-21T00:56:19;100212.81;;;8.16;97.86
5755;BME280;2902;42.130;24.732;2024-02-21T00:58:46;100213.28;;;8.12;97.92
5755;BME280;2902;42.130;24.732;2024-02-21T01:01:13;100206.00;;;7.98;98.99
5755;BME280;2902;42.130;24.732;2024-02-21T01:03:39;100208.47;;;7.91;98.13
5755;BME280;2902;42.130;24.732;2024-02-21T01:06:06;100207.97;;;7.88;98.52
5755;BME280;2902;42.130;24.732;2024-02-21T01:08:33;100207.28;;;7.78;98.11
5755;BME280;2902;42.130;24.732;2024-02-21T01:11:01;100207.59;;;7.75;98.08
5755;BME280;2902;42.130;24.732;2024-02-21T01:13:28;100202.28;;;7.75;97.68
5755;BME280;2902;42.130;24.732;2024-02-21T01:15:54;100193.72;;;7.73;98.15
5755;BME280;2902;42.130;24.732;2024-02-21T01:18:21;100195.66;;;7.71;98.37
5755;BME280;2902;42.130;24.732;2024-02-21T01:20:48;100193.72;;;7.73;98.51
5755;BME280;2902;42.130;24.732;2024-02-21T01:23:15;100198.31;;;7.71;98.51
5755;BME280;2902;42.130;24.732;2024-02-21T01:25:41;100194.88;;;7.70;98.38
5755;BME280;2902;42.130;24.732;2024-02-21T01:28:09;100191.22;;;7.71;97.80
5755;BME280;2902;42.130;24.732;2024-02-21T01:30:36;100189.41;;;7.72;97.69
5755;BME280;2902;42.130;24.732;2024-02-21T01:33:03;100183.56;;;7.60;97.86
5755;BME280;2902;42.130;24.732;2024-02-21T01:35:30;100180.78;;;7.62;97.53
5755;BME280;2902;42.130;24.732;2024-02-21T01:37:57;100175.19;;;7.73;97.49
5755;BME280;2902;42.130;24.732;2024-02-21T01:40:23;100181.34;;;7.81;96.86
5755;BME280;2902;42.130;24.732;2024-02-21T01:42:50;100177.53;;;7.76;96.01
5755;BME280;2902;42.130;24.732;2024-02-21T01:45:20;100178.34;;;7.76;96.76
5755;BME280;2902;42.130;24.732;2024-02-21T01:47:47;100178.19;;;7.78;96.25
5755;BME280;2902;42.130;24.732;2024-02-21T01:50:15;100183.47;;;7.78;96.10
5755;BME280;2902;42.130;24.732;2024-02-21T01:52:42;100176.50;;;7.69;95.03
5755;BME280;2902;42.130;24.732;2024-02-21T01:55:09;100176.53;;;7.77;94.45
5755;BME280;2902;42.130;24.732;2024-02-21T01:57:39;100177.41;;;7.85;95.58
5755;BME280;2902;42.130;24.732;2024-02-21T02:00:07;100178.72;;;7.97;94.40
5755;BME280;2902;42.130;24.732;2024-02-21T02:02:37;100175.13;;;8.06;94.55
5755;BME280;2902;42.130;24.732;2024-02-21T02:05:04;100173.59;;;8.12;93.05
5755;BME280;2902;42.130;24.732;2024-02-21T02:07:32;100173.97;;;8.17;93.00
5755;BME280;2902;42.130;24.732;2024-02-21T02:09:58;100173.50;;;8.21;92.54
5755;BME280;2902;42.130;24.732;2024-02-21T02:12:25;100171.00;;;8.28;92.78
5755;BME280;2902;42.130;24.732;2024-02-21T02:14:58;100176.00;;;8.39;93.15
5755;BME280;2902;42.130;24.732;2024-02-21T02:17:25;100176.66;;;8.49;92.97
5755;BME280;2902;42.130;24.732;2024-02-21T02:19:53;100168.38;;;8.60;92.43
5755;BME280;2902;42.130;24.732;2024-02-21T02:22:28;100144.22;;;8.55;91.58
5755;BME280;2902;42.130;24.732;2024-02-21T02:24:56;100170.50;;;8.72;92.05
5755;BME280;2902;42.130;24.732;2024-02-21T02:27:23;100173.31;;;8.79;90.65
5755;BME280;2902;42.130;24.732;2024-02-21T02:29:50;100177.28;;;8.83;91.02
5755;BME280;2902;42.130;24.732;2024-02-21T02:32:17;100172.31;;;8.88;90.90
5755;BME280;2902;42.130;24.732;2024-02-21T02:34:44;100172.78;;;8.91;90.38
5755;BME280;2902;42.130;24.732;2024-02-21T02:37:11;100171.28;;;8.97;91.24
5755;BME280;2902;42.130;24.732;2024-02-21T02:39:37;100172.28;;;9.04;90.96
5755;BME280;2902;42.130;24.732;2024-02-21T02:42:06;100178.88;;;9.08;91.28
5755;BME280;2902;42.130;24.732;2024-02-21T02:44:32;100184.66;;;9.11;91.18
5755;BME280;2902;42.130;24.732;2024-02-21T02:46:59;100184.16;;;9.16;90.40
5755;BME280;2902;42.130;24.732;2024-02-21T02:49:26;100185.50;;;9.12;90.37
5755;BME280;2902;42.130;24.732;2024-02-21T02:51:52;100176.59;;;8.97;90.86
5755;BME280;2902;42.130;24.732;2024-02-21T02:54:19;100178.22;;;8.98;91.01
5755;BME280;2902;42.130;24.732;2024-02-21T02:56:46;100177.56;;;9.04;91.72
5755;BME280;2902;42.130;24.732;2024-02-21T02:59:14;100173.59;;;9.08;91.66
5755;BME280;2902;42.130;24.732;2024-02-21T03:01:41;100175.91;;;9.11;92.18
5755;BME280;2902;42.130;24.732;2024-02-21T03:04:07;100170.63;;;9.03;91.87
5755;BME280;2902;42.130;24.732;2024-02-21T03:06:34;100174.47;;;8.92;92.83
5755;BME280;2902;42.130;24.732;2024-02-21T03:09:01;100172.16;;;8.81;93.88
5755;BME280;2902;42.130;24.732;2024-02-21T03:11:33;100159.75;;;8.74;94.79
5755;BME280;2902;42.130;24.732;2024-02-21T03:14:00;100178.31;;;8.66;95.84
5755;BME280;2902;42.130;24.732;2024-02-21T03:16:28;100172.34;;;8.56;96.51
5755;BME280;2902;42.130;24.732;2024-02-21T03:18:55;100176.00;;;8.55;96.45
5755;BME280;2902;42.130;24.732;2024-02-21T03:21:22;100165.06;;;8.58;97.29
5755;BME280;2902;42.130;24.732;2024-02-21T03:23:48;100166.38;;;8.62;97.13
5755;BME280;2902;42.130;24.732;2024-02-21T03:26:15;100164.22;;;8.65;97.78
5755;BME280;2902;42.130;24.732;2024-02-21T03:28:42;100159.94;;;8.64;97.75
5755;BME280;2902;42.130;24.732;2024-02-21T03:31:11;100156.28;;;8.57;98.52
5755;BME280;2902;42.130;24.732;2024-02-21T03:33:39;100166.88;;;8.57;98.70
5755;BME280;2902;42.130;24.732;2024-02-21T03:36:06;100161.25;;;8.60;99.24
5755;BME280;2902;42.130;24.732;2024-02-21T03:38:33;100154.47;;;8.66;98.79
5755;BME280;2902;42.130;24.732;2024-02-21T03:41:00;100152.16;;;8.63;99.09
5755;BME280;2902;42.130;24.732;2024-02-21T03:43:27;100165.38;;;8.63;99.17
5755;BME280;2902;42.130;24.732;2024-02-21T03:45:53;100156.44;;;8.64;98.50
5755;BME280;2902;42.130;24.732;2024-02-21T03:48:20;100155.13;;;8.68;99.72
5755;BME280;2902;42.130;24.732;2024-02-21T03:50:48;100152.78;;;8.73;99.07
5755;BME280;2902;42.130;24.732;2024-02-21T03:53:15;100155.94;;;8.76;99.21
5755;BME280;2902;42.130;24.732;2024-02-21T03:55:41;100155.41;;;8.81;99.13
5755;BME280;2902;42.130;24.732;2024-02-21T03:58:08;100154.25;;;8.83;98.88
5755;BME280;2902;42.130;24.732;2024-02-21T04:00:35;100157.25;;;8.88;98.45
5755;BME280;2902;42.130;24.732;2024-02-21T04:03:02;100161.38;;;8.91;98.80
5755;BME280;2902;42.130;24.732;2024-02-21T04:05:29;100163.03;;;8.92;99.07
5755;BME280;2902;42.130;24.732;2024-02-21T04:07:57;100160.53;;;8.90;99.13
5755;BME280;2902;42.130;24.732;2024-02-21T04:10:24;100165.66;;;8.92;98.59
5755;BME280;2902;42.130;24.732;2024-02-21T04:12:50;100168.78;;;8.95;98.55
5755;BME280;2902;42.130;24.732;2024-02-21T04:15:17;100172.94;;;8.98;98.27
5755;BME280;2902;42.130;24.732;2024-02-21T04:17:44;100166.66;;;8.99;98.69
5755;BME280;2902;42.130;24.732;2024-02-21T04:20:14;100159.69;;;8.98;98.43
5755;BME280;2902;42.130;24.732;2024-02-21T04:22:42;100164.66;;;9.01;97.74
5755;BME280;2902;42.130;24.732;2024-02-21T04:25:11;100169.31;;;8.99;98.25
5755;BME280;2902;42.130;24.732;2024-02-21T04:27:38;100164.66;;;8.93;97.48
5755;BME280;2902;42.130;24.732;2024-02-21T04:30:06;100165.84;;;8.82;97.15
5755;BME280;2902;42.130;24.732;2024-02-21T04:32:33;100174.63;;;8.83;96.40
5755;BME280;2902;42.130;24.732;2024-02-21T04:35:00;100178.09;;;8.83;96.06
5755;BME280;2902;42.130;24.732;2024-02-21T04:37:27;100176.28;;;8.84;96.04
5755;BME280;2902;42.130;24.732;2024-02-21T04:39:53;100187.03;;;8.90;96.26
5755;BME280;2902;42.130;24.732;2024-02-21T04:42:21;100186.38;;;8.96;95.71
5755;BME280;2902;42.130;24.732;2024-02-21T04:44:48;100196.44;;;9.01;95.42
5755;BME280;2902;42.130;24.732;2024-02-21T04:47:15;100196.97;;;9.04;94.79
5755;BME280;2902;42.130;24.732;2024-02-21T04:49:42;100205.72;;;8.97;93.17
5755;BME280;2902;42.130;24.732;2024-02-21T04:52:08;100200.59;;;8.95;93.40
5755;BME280;2902;42.130;24.732;2024-02-21T04:54:35;100198.94;;;8.94;93.45
5755;BME280;2902;42.130;24.732;2024-02-21T04:57:02;100198.63;;;8.97;92.83
5755;BME280;2902;42.130;24.732;2024-02-21T04:59:30;100209.22;;;8.97;92.26
5755;BME280;2902;42.130;24.732;2024-02-21T05:01:57;100215.38;;;8.90;91.36
5755;BME280;2902;42.130;24.732;2024-02-21T05:04:24;100205.56;;;8.90;92.30
5755;BME280;2902;42.130;24.732;2024-02-21T05:06:50;100213.03;;;8.87;91.63
5755;BME280;2902;42.130;24.732;2024-02-21T05:09:17;100203.47;;;8.78;92.28
5755;BME280;2902;42.130;24.732;2024-02-21T05:11:44;100210.06;;;8.82;92.89
5755;BME280;2902;42.130;24.732;2024-02-21T05:14:10;100214.06;;;8.78;93.17
5755;BME280;2902;42.130;24.732;2024-02-21T05:16:39;100218.34;;;8.63;93.05
5755;BME280;2902;42.130;24.732;2024-02-21T05:19:06;100222.97;;;8.61;92.91
5755;BME280;2902;42.130;24.732;2024-02-21T05:21:33;100236.22;;;8.69;93.88
5755;BME280;2902;42.130;24.732;2024-02-21T05:24:00;100227.28;;;8.70;93.71
5755;BME280;2902;42.130;24.732;2024-02-21T05:26:27;100219.34;;;8.62;93.71
5755;BME280;2902;42.130;24.732;2024-02-21T05:28:54;100222.66;;;8.64;93.77
5755;BME280;2902;42.130;24.732;2024-02-21T05:31:20;100227.63;;;8.67;93.92
5755;BME280;2902;42.130;24.732;2024-02-21T05:33:48;100226.47;;;8.69;93.74
5755;BME280;2902;42.130;24.732;2024-02-21T05:36:15;100232.25;;;8.65;92.37
5755;BME280;2902;42.130;24.732;2024-02-21T05:38:42;100230.44;;;8.65;92.45
5755;BME280;2902;42.130;24.732;2024-02-21T05:41:09;100229.25;;;8.68;92.81
5755;BME280;2902;42.130;24.732;2024-02-21T05:43:36;100235.72;;;8.65;92.94
5755;BME280;2902;42.130;24.732;2024-02-21T05:46:02;100239.69;;;8.61;93.32
5755;BME280;2902;42.130;24.732;2024-02-21T05:48:29;100244.84;;;8.71;93.48
5755;BME280;2902;42.130;24.732;2024-02-21T05:50:57;100247.47;;;8.63;93.38
5755;BME280;2902;42.130;24.732;2024-02-21T05:53:24;100238.84;;;8.61;93.34
5755;BME280;2902;42.130;24.732;2024-02-21T05:55:51;100244.34;;;8.67;93.49
5755;BME280;2902;42.130;24.732;2024-02-21T05:58:18;100244.84;;;8.71;93.23
5755;BME280;2902;42.130;24.732;2024-02-21T06:00:44;100247.81;;;8.76;93.11
5755;BME280;2902;42.130;24.732;2024-02-21T06:03:11;100248.13;;;8.57;91.54
5755;BME280;2902;42.130;24.732;2024-02-21T06:05:38;100254.44;;;8.64;91.78
5755;BME280;2902;42.130;24.732;2024-02-21T06:08:06;100251.47;;;8.67;91.30
5755;BME280;2902;42.130;24.732;2024-02-21T06:10:34;100257.06;;;8.72;90.97
5755;BME280;2902;42.130;24.732;2024-02-21T06:13:01;100258.06;;;8.79;90.50
5755;BME280;2902;42.130;24.732;2024-02-21T06:15:27;100261.38;;;8.81;89.98
5755;BME280;2902;42.130;24.732;2024-02-21T06:17:54;100258.88;;;8.87;90.16
5755;BME280;2902;42.130;24.732;2024-02-21T06:20:21;100267.34;;;8.91;90.16
5755;BME280;2902;42.130;24.732;2024-02-21T06:22:47;100270.81;;;8.99;90.11
5755;BME280;2902;42.130;24.732;2024-02-21T06:25:16;100275.44;;;9.05;89.94
5755;BME280;2902;42.130;24.732;2024-02-21T06:27:43;100278.91;;;9.14;90.32
5755;BME280;2902;42.130;24.732;2024-02-21T06:30:11;100286.19;;;9.20;89.45
5755;BME280;2902;42.130;24.732;2024-02-21T06:32:37;100285.34;;;9.27;89.32
5755;BME280;2902;42.130;24.732;2024-02-21T06:35:05;100286.50;;;9.33;88.29
5755;BME280;2902;42.130;24.732;2024-02-21T06:37:32;100277.53;;;9.42;88.54
5755;BME280;2902;42.130;24.732;2024-02-21T06:39:59;100280.84;;;9.52;89.01
5755;BME280;2902;42.130;24.732;2024-02-21T06:42:27;100285.13;;;9.61;88.52
5755;BME280;2902;42.130;24.732;2024-02-21T06:44:54;100283.78;;;9.65;87.97
5755;BME280;2902;42.130;24.732;2024-02-21T06:47:21;100272.84;;;9.68;87.73
5755;BME280;2902;42.130;24.732;2024-02-21T06:49:49;100279.44;;;9.72;86.98
5755;BME280;2902;42.130;24.732;2024-02-21T06:52:17;100283.44;;;9.68;87.08
5755;BME280;2902;42.130;24.732;2024-02-21T06:54:45;100282.94;;;9.64;87.84
5755;BME280;2902;42.130;24.732;2024-02-21T06:57:12;100280.13;;;9.66;88.02
5755;BME280;2902;42.130;24.732;2024-02-21T06:59:40;100278.28;;;9.74;87.99
5755;BME280;2902;42.130;24.732;2024-02-21T07:02:07;100280.53;;;9.85;88.88
5755;BME280;2902;42.130;24.732;2024-02-21T07:04:34;100284.47;;;9.97;87.98
5755;BME280;2902;42.130;24.732;2024-02-21T07:07:00;100285.94;;;10.00;87.19
5755;BME280;2902;42.130;24.732;2024-02-21T07:09:27;100284.97;;;10.01;86.43
5755;BME280;2902;42.130;24.732;2024-02-21T07:11:57;100283.63;;;10.13;86.55
5755;BME280;2902;42.130;24.732;2024-02-21T07:14:24;100283.63;;;10.13;84.27
5755;BME280;2902;42.130;24.732;2024-02-21T07:16:52;100285.44;;;10.04;83.38
5755;BME280;2902;42.130;24.732;2024-02-21T07:19:19;100287.38;;;10.18;82.84
5755;BME280;2902;42.130;24.732;2024-02-21T07:21:46;100289.13;;;10.34;83.56
5755;BME280;2902;42.130;24.732;2024-02-21T07:24:13;100298.94;;;10.56;82.09
5755;BME280;2902;42.130;24.732;2024-02-21T07:26:41;100288.38;;;10.70;80.65
5755;BME280;2902;42.130;24.732;2024-02-21T07:29:08;100294.47;;;10.79;80.09
5755;BME280;2902;42.130;24.732;2024-02-21T07:31:39;100298.47;;;10.98;80.60
5755;BME280;2902;42.130;24.732;2024-02-21T07:34:08;100296.00;;;10.96;79.60
5755;BME280;2902;42.130;24.732;2024-02-21T07:36:35;100300.16;;;11.13;79.95
5755;BME280;2902;42.130;24.732;2024-02-21T07:39:03;100298.19;;;11.30;78.39
5755;BME280;2902;42.130;24.732;2024-02-21T07:41:30;100305.06;;;11.39;78.44
5755;BME280;2902;42.130;24.732;2024-02-21T07:43:57;100299.09;;;11.51;76.64
5755;BME280;2902;42.130;24.732;2024-02-21T07:46:24;100306.81;;;11.46;76.65
5755;BME280;2902;42.130;24.732;2024-02-21T07:48:50;100304.69;;;11.42;77.19
5755;BME280;2902;42.130;24.732;2024-02-21T07:51:19;100312.13;;;11.46;76.59
5755;BME280;2902;42.130;24.732;2024-02-21T07:53:45;100306.69;;;11.62;76.28
5755;BME280;2902;42.130;24.732;2024-02-21T07:56:13;100314.13;;;11.81;76.61
5755;BME280;2902;42.130;24.732;2024-02-21T07:58:40;100319.16;;;11.76;75.02
5755;BME280;2902;42.130;24.732;2024-02-21T08:01:07;100316.22;;;11.71;76.29
5755;BME280;2902;42.130;24.732;2024-02-21T08:03:34;100310.72;;;11.73;75.88
5755;BME280;2902;42.130;24.732;2024-02-21T08:06:02;100306.34;;;11.80;76.40
5755;BME280;2902;42.130;24.732;2024-02-21T08:08:30;100313.19;;;11.89;76.04
5755;BME280;2902;42.130;24.732;2024-02-21T08:10:57;100308.88;;;12.02;76.92
5755;BME280;2902;42.130;24.732;2024-02-21T08:13:23;100310.34;;;12.19;75.76
5755;BME280;2902;42.130;24.732;2024-02-21T08:15:50;100290.63;;;11.99;75.85
5755;BME280;2902;42.130;24.732;2024-02-21T08:18:17;100309.25;;;11.85;73.61
5755;BME280;2902;42.130;24.732;2024-02-21T08:20:44;100321.66;;;11.78;73.25
5755;BME280;2902;42.130;24.732;2024-02-21T08:23:10;100322.13;;;11.81;72.42
5755;BME280;2902;42.130;24.732;2024-02-21T08:25:39;100321.91;;;11.68;71.81
5755;BME280;2902;42.130;24.732;2024-02-21T08:28:05;100321.19;;;11.74;72.55
5755;BME280;2902;42.130;24.732;2024-02-21T08:30:33;100330.38;;;11.86;72.13
5755;BME280;2902;42.130;24.732;2024-02-21T08:32:59;100337.53;;;12.00;71.82
5755;BME280;2902;42.130;24.732;2024-02-21T08:35:26;100331.47;;;12.06;70.90
5755;BME280;2902;42.130;24.732;2024-02-21T08:37:53;100321.53;;;12.00;71.38
5755;BME280;2902;42.130;24.732;2024-02-21T08:40:19;100327.13;;;12.05;71.50
5755;BME280;2902;42.130;24.732;2024-02-21T08:42:48;100331.16;;;12.30;71.26
5755;BME280;2902;42.130;24.732;2024-02-21T08:45:15;100336.59;;;12.22;70.02
5755;BME280;2902;42.130;24.732;2024-02-21T08:47:42;100330.06;;;12.25;70.37
5755;BME280;2902;42.130;24.732;2024-02-21T08:50:10;100333.53;;;12.25;69.14
5755;BME280;2902;42.130;24.732;2024-02-21T08:52:36;100325.56;;;12.25;70.12
5755;BME280;2902;42.130;24.732;2024-02-21T08:55:04;100328.59;;;12.37;68.58
5755;BME280;2902;42.130;24.732;2024-02-21T08:57:31;100331.06;;;12.38;68.56
5755;BME280;2902;42.130;24.732;2024-02-21T09:00:04;100343.59;;;12.59;68.94
5755;BME280;2902;42.130;24.732;2024-02-21T09:02:36;100337.72;;;12.84;69.03
5755;BME280;2902;42.130;24.732;2024-02-21T09:05:04;100341.03;;;13.07;69.69
5755;BME280;2902;42.130;24.732;2024-02-21T09:07:31;100340.59;;;13.25;69.35
5755;BME280;2902;42.130;24.732;2024-02-21T09:09:58;100328.50;;;13.56;69.40
5755;BME280;2902;42.130;24.732;2024-02-21T09:12:25;100358.81;;;14.04;64.82
5755;BME280;2902;42.130;24.732;2024-02-21T09:14:51;100350.63;;;14.12;64.25
5755;BME280;2902;42.130;24.732;2024-02-21T09:17:19;100352.88;;;14.49;63.24
5755;BME280;2902;42.130;24.732;2024-02-21T09:19:46;100339.75;;;14.47;63.52
5755;BME280;2902;42.130;24.732;2024-02-21T09:22:13;100333.78;;;14.58;62.99
5755;BME280;2902;42.130;24.732;2024-02-21T09:24:40;100333.66;;;14.86;62.60
5755;BME280;2902;42.130;24.732;2024-02-21T09:27:07;100337.22;;;15.25;60.41
5755;BME280;2902;42.130;24.732;2024-02-21T09:29:33;100330.03;;;15.58;59.40
5755;BME280;2902;42.130;24.732;2024-02-21T09:32:00;100335.34;;;15.84;58.84
5755;BME280;2902;42.130;24.732;2024-02-21T09:34:29;100321.44;;;16.14;57.86
5755;BME280;2902;42.130;24.732;2024-02-21T09:36:56;100318.66;;;16.40;54.63
5755;BME280;2902;42.130;24.732;2024-02-21T09:39:23;100334.38;;;16.30;52.50
5755;BME280;2902;42.130;24.732;2024-02-21T09:41:52;100314.59;;;16.24;53.05
5755;BME280;2902;42.130;24.732;2024-02-21T09:44:21;100312.06;;;16.36;54.13
5755;BME280;2902;42.130;24.732;2024-02-21T09:46:52;100277.06;;;17.24;68.54
5755;BME280;2902;42.130;24.732;2024-02-21T09:49:32;100307.47;;;18.03;56.12
5755;BME280;2902;42.130;24.732;2024-02-21T09:52:00;100299.34;;;17.91;50.54
5755;BME280;2902;42.130;24.732;2024-02-21T09:54:29;100303.38;;;18.00;48.73
5755;BME280;2902;42.130;24.732;2024-02-21T09:56:56;100298.97;;;18.06;47.45
5755;BME280;2902;42.130;24.732;2024-02-21T09:59:23;100289.88;;;17.89;46.39
5755;BME280;2902;42.130;24.732;2024-02-21T10:01:51;100278.34;;;18.18;49.86
5755;BME280;2902;42.130;24.732;2024-02-21T10:04:17;100275.38;;;18.26;46.70
5755;BME280;2902;42.130;24.732;2024-02-21T10:06:46;100273.94;;;18.41;47.49
5755;BME280;2902;42.130;24.732;2024-02-21T10:09:20;100267.69;;;18.59;43.83
5755;BME280;2902;42.130;24.732;2024-02-21T10:11:48;100266.69;;;18.42;44.97
5755;BME280;2902;42.130;24.732;2024-02-21T10:14:15;100268.09;;;18.44;43.88
5755;BME280;2902;42.130;24.732;2024-02-21T10:16:42;100267.88;;;18.28;44.38
5755;BME280;2902;42.130;24.732;2024-02-21T10:19:16;100260.16;;;18.02;43.69
5755;BME280;2902;42.130;24.732;2024-02-21T10:21:43;100255.66;;;17.78;44.66
5755;BME280;2902;42.130;24.732;2024-02-21T10:24:12;100254.31;;;17.51;44.46
5755;BME280;2902;42.130;24.732;2024-02-21T10:26:39;100246.44;;;17.07;44.60
5755;BME280;2902;42.130;24.732;2024-02-21T10:29:06;100239.94;;;17.39;44.41
5755;BME280;2902;42.130;24.732;2024-02-21T10:31:32;100232.75;;;17.57;43.66
5755;BME280;2902;42.130;24.732;2024-02-21T10:34:00;100214.28;;;17.79;43.31
5755;BME280;2902;42.130;24.732;2024-02-21T10:36:29;100217.69;;;18.04;42.39
5755;BME280;2902;42.130;24.732;2024-02-21T10:38:56;100214.06;;;17.98;42.54
5755;BME280;2902;42.130;24.732;2024-02-21T10:41:24;100210.25;;;18.06;43.20
5755;BME280;2902;42.130;24.732;2024-02-21T10:43:53;100209.19;;;18.07;42.26
5755;BME280;2902;42.130;24.732;2024-02-21T10:46:21;100207.91;;;18.27;41.87
5755;BME280;2902;42.130;24.732;2024-02-21T10:48:59;100193.03;;;18.25;40.82
5755;BME280;2902;42.130;24.732;2024-02-21T10:51:31;100191.81;;;18.39;41.65
5755;BME280;2902;42.130;24.732;2024-02-21T10:54:10;100195.56;;;18.20;40.87
5755;BME280;2902;42.130;24.732;2024-02-21T10:56:41;100181.31;;;17.72;41.75
5755;BME280;2902;42.130;24.732;2024-02-21T10:59:08;100166.41;;;17.76;42.40
5755;BME280;2902;42.130;24.732;2024-02-21T11:01:35;100175.00;;;17.96;41.50
5755;BME280;2902;42.130;24.732;2024-02-21T11:04:04;100176.53;;;17.92;41.63
5755;BME280;2902;42.130;24.732;2024-02-21T11:06:32;100168.03;;;17.77;42.53
5755;BME280;2902;42.130;24.732;2024-02-21T11:09:01;100163.03;;;17.62;42.96
5755;BME280;2902;42.130;24.732;2024-02-21T11:11:29;100159.53;;;17.62;42.56
5755;BME280;2902;42.130;24.732;2024-02-21T11:14:05;100163.50;;;17.41;42.24
5755;BME280;2902;42.130;24.732;2024-02-21T11:16:36;100156.84;;;17.44;42.39
5755;BME280;2902;42.130;24.732;2024-02-21T11:19:05;100149.94;;;17.30;42.06
5755;BME280;2902;42.130;24.732;2024-02-21T11:21:33;100151.13;;;17.34;42.09
5755;BME280;2902;42.130;24.732;2024-02-21T11:24:00;100162.53;;;17.11;41.96
5755;BME280;2902;42.130;24.732;2024-02-21T11:26:28;100159.31;;;17.03;43.11
5755;BME280;2902;42.130;24.732;2024-02-21T11:28:57;100152.88;;;16.86;42.89
5755;BME280;2902;42.130;24.732;2024-02-21T11:31:26;100139.91;;;17.01;43.06
5755;BME280;2902;42.130;24.732;2024-02-21T11:33:53;100143.44;;;17.19;42.34
5755;BME280;2902;42.130;24.732;2024-02-21T11:36:24;100131.91;;;17.19;42.70
5755;BME280;2902;42.130;24.732;2024-02-21T11:38:51;100136.78;;;17.46;42.38
5755;BME280;2902;42.130;24.732;2024-02-21T11:41:18;100135.94;;;17.64;40.98
5755;BME280;2902;42.130;24.732;2024-02-21T11:43:46;100138.91;;;17.74;40.20
5755;BME280;2902;42.130;24.732;2024-02-21T11:46:14;100130.09;;;17.85;39.65
5755;BME280;2902;42.130;24.732;2024-02-21T11:48:42;100128.59;;;17.89;39.55
5755;BME280;2902;42.130;24.732;2024-02-21T11:51:09;100126.41;;;17.68;40.54
5755;BME280;2902;42.130;24.732;2024-02-21T11:53:36;100118.50;;;17.84;40.30
5755;BME280;2902;42.130;24.732;2024-02-21T11:56:04;100123.78;;;17.91;38.64
5755;BME280;2902;42.130;24.732;2024-02-21T11:58:31;100118.03;;;17.40;39.52
5755;BME280;2902;42.130;24.732;2024-02-21T12:00:57;100119.97;;;17.33;39.73
5755;BME280;2902;42.130;24.732;2024-02-21T12:03:25;100113.13;;;17.19;39.63
5755;BME280;2902;42.130;24.732;2024-02-21T12:05:54;100114.84;;;16.89;40.03
5755;BME280;2902;42.130;24.732;2024-02-21T12:08:22;100092.06;;;16.98;39.50
5755;BME280;2902;42.130;24.732;2024-02-21T12:10:49;100105.00;;;16.83;40.65
5755;BME280;2902;42.130;24.732;2024-02-21T12:13:16;100107.28;;;17.04;39.07
5755;BME280;2902;42.130;24.732;2024-02-21T12:15:47;100099.31;;;16.73;40.15
5755;BME280;2902;42.130;24.732;2024-02-21T12:18:14;100101.72;;;16.81;40.19
5755;BME280;2902;42.130;24.732;2024-02-21T12:20:41;100104.38;;;16.63;40.05
5755;BME280;2902;42.130;24.732;2024-02-21T12:23:11;100085.25;;;16.77;39.93
5755;BME280;2902;42.130;24.732;2024-02-21T12:25:38;100092.06;;;16.98;40.23
5755;BME280;2902;42.130;24.732;2024-02-21T12:28:05;100081.63;;;17.26;39.05
5755;BME280;2902;42.130;24.732;2024-02-21T12:30:32;100074.56;;;17.49;39.42
5755;BME280;2902;42.130;24.732;2024-02-21T12:33:00;100072.66;;;17.68;38.92
5755;BME280;2902;42.130;24.732;2024-02-21T12:35:27;100075.03;;;17.58;38.45
5755;BME280;2902;42.130;24.732;2024-02-21T12:37:56;100055.75;;;17.49;49.38
5755;BME280;2902;42.130;24.732;2024-02-21T12:40:24;100039.84;;;17.48;40.33
5755;BME280;2902;42.130;24.732;2024-02-21T12:42:51;100057.44;;;17.62;46.94
5755;BME280;2902;42.130;24.732;2024-02-21T12:45:18;100045.06;;;18.02;49.78
5755;BME280;2902;42.130;24.732;2024-02-21T12:47:45;100051.59;;;18.47;43.55
5755;BME280;2902;42.130;24.732;2024-02-21T12:50:12;100034.00;;;18.33;42.21
5755;BME280;2902;42.130;24.732;2024-02-21T12:52:40;100038.84;;;18.65;43.69
5755;BME280;2902;42.130;24.732;2024-02-21T12:55:07;100034.50;;;18.76;45.81
5755;BME280;2902;42.130;24.732;2024-02-21T12:57:37;100039.06;;;18.75;37.82
5755;BME280;2902;42.130;24.732;2024-02-21T13:00:06;100043.75;;;18.57;37.36
5755;BME280;2902;42.130;24.732;2024-02-21T13:02:34;100027.13;;;18.60;42.96
5755;BME280;2902;42.130;24.732;2024-02-21T13:05:01;100034.13;;;18.95;42.36
5755;BME280;2902;42.130;24.732;2024-02-21T13:07:28;100034.91;;;19.19;37.66